sensor_id;sensor_type;location;lat;lon;timestamp;P1;durP1;ratioP1;P2;durP2;ratioP2
5363;SDS011;77171;41.408;2.158;2024-03-29T00:02:20;53.50;;;11.05;;
5363;SDS011;77171;41.408;2.158;2024-03-29T00:04:47;49.58;;;9.93;;
5363;SDS011;77171;41.408;2.158;2024-03-29T00:07:14;51.38;;;10.52;;
5363;SDS011;77171;41.408;2.158;2024-03-29T00:09:41;46.95;;;10.80;;
5363;SDS011;77171;41.408;2.158;2024-03-29T00:12:08;56.97;;;10.05;;
5363;SDS011;77171;41.408;2.158;2024-03-29T00:14:35;60.70;;;12.27;;
5363;SDS011;77171;41.408;2.158;2024-03-29T00:17:04;42.20;;;10.80;;
5363;SDS011;77171;41.408;2.158;2024-03-29T00:19:31;49.45;;;10.18;;
5363;SDS011;77171;41.408;2.158;2024-03-29T00:21:58;55.72;;;11.55;;
5363;SDS011;77171;41.408;2.158;2024-03-29T00:24:25;49.83;;;10.70;;
5363;SDS011;77171;41.408;2.158;2024-03-29T00:26:51;63.83;;;17.15;;
5363;SDS011;77171;41.408;2.158;2024-03-29T00:29:18;55.30;;;11.77;;
5363;SDS011;77171;41.408;2.158;2024-03-29T00:31:45;55.03;;;10.90;;
5363;SDS011;77171;41.408;2.158;2024-03-29T00:34:14;57.75;;;11.25;;
5363;SDS011;77171;41.408;2.158;2024-03-29T00:36:41;49.13;;;11.02;;
5363;SDS011;77171;41.408;2.158;2024-03-29T00:39:08;66.22;;;13.02;;
5363;SDS011;77171;41.408;2.158;2024-03-29T00:41:35;62.05;;;11.27;;
5363;SDS011;77171;41.408;2.158;2024-03-29T00:44:02;63.30;;;12.43;;
5363;SDS011;77171;41.408;2.158;2024-03-29T00:46:29;49.78;;;11.15;;
5363;SDS011;77171;41.408;2.158;2024-03-29T00:48:56;49.78;;;11.15;;
5363;SDS011;77171;41.408;2.158;2024-03-29T00:51:24;54.28;;;11.00;;
5363;SDS011;77171;41.408;2.158;2024-03-29T00:53:51;45.78;;;10.75;;
5363;SDS011;77171;41.408;2.158;2024-03-29T00:56:18;53.13;;;10.50;;
5363;SDS011;77171;41.408;2.158;2024-03-29T00:58:45;58.25;;;12.18;;
5363;SDS011;77171;41.408;2.158;2024-03-29T01:01:12;55.38;;;11.85;;
5363;SDS011;77171;41.408;2.158;2024-03-29T01:03:40;50.00;;;11.32;;
5363;SDS011;77171;41.408;2.158;2024-03-29T01:06:08;46.30;;;10.95;;
5363;SDS011;77171;41.408;2.158;2024-03-29T01:08:36;53.08;;;11.32;;
5363;SDS011;77171;41.408;2.158;2024-03-29T01:11:03;57.47;;;11.52;;
5363;SDS011;77171;41.408;2.158;2024-03-29T01:13:30;61.92;;;12.18;;
5363;SDS011;77171;41.408;2.158;2024-03-29T01:15:57;51.72;;;10.98;;
5363;SDS011;77171;41.408;2.158;2024-03-29T01:18:24;53.55;;;11.93;;
5363;SDS011;77171;41.408;2.158;2024-03-29T01:20:51;50.95;;;10.82;;
5363;SDS011;77171;41.408;2.158;2024-03-29T01:23:18;51.95;;;10.77;;
5363;SDS011;77171;41.408;2.158;2024-03-29T01:25:46;57.78;;;11.38;;
5363;SDS011;77171;41.408;2.158;2024-03-29T01:28:13;58.03;;;11.60;;
5363;SDS011;77171;41.408;2.158;2024-03-29T01:30:40;46.22;;;10.23;;
5363;SDS011;77171;41.408;2.158;2024-03-29T01:33:07;54.03;;;11.05;;
5363;SDS011;77171;41.408;2.158;2024-03-29T01:35:34;48.35;;;10.05;;
5363;SDS011;77171;41.408;2.158;2024-03-29T01:38:01;52.55;;;10.63;;
5363;SDS011;77171;41.408;2.158;2024-03-29T01:40:28;58.90;;;11.20;;
5363;SDS011;77171;41.408;2.158;2024-03-29T01:42:56;49.78;;;10.43;;
5363;SDS011;77171;41.408;2.158;2024-03-29T01:45:23;55.15;;;12.30;;
5363;SDS011;77171;41.408;2.158;2024-03-29T01:47:51;55.47;;;11.07;;
5363;SDS011;77171;41.408;2.158;2024-03-29T01:50:20;57.35;;;10.02;;
5363;SDS011;77171;41.408;2.158;2024-03-29T01:52:48;44.75;;;9.77;;
5363;SDS011;77171;41.408;2.158;2024-03-29T01:55:17;52.90;;;10.15;;
5363;SDS011;77171;41.408;2.158;2024-03-29T01:57:45;56.30;;;10.25;;
5363;SDS011;77171;41.408;2.158;2024-03-29T02:00:15;54.95;;;10.55;;
5363;SDS011;77171;41.408;2.158;2024-03-29T02:02:44;46.78;;;9.93;;
5363;SDS011;77171;41.408;2.158;2024-03-29T02:05:12;41.42;;;9.38;;
5363;SDS011;77171;41.408;2.158;2024-03-29T02:07:40;45.40;;;8.55;;
5363;SDS011;77171;41.408;2.158;2024-03-29T02:10:11;53.65;;;10.63;;
5363;SDS011;77171;41.408;2.158;2024-03-29T02:12:39;49.10;;;9.30;;
5363;SDS011;77171;41.408;2.158;2024-03-29T02:15:07;50.45;;;8.90;;
5363;SDS011;77171;41.408;2.158;2024-03-29T02:17:37;53.05;;;9.23;;
5363;SDS011;77171;41.408;2.158;2024-03-29T02:20:05;48.80;;;9.73;;
5363;SDS011;77171;41.408;2.158;2024-03-29T02:22:33;50.25;;;9.15;;
5363;SDS011;77171;41.408;2.158;2024-03-29T02:25:09;44.40;;;9.02;;
5363;SDS011;77171;41.408;2.158;2024-03-29T02:27:39;39.95;;;8.48;;
5363;SDS011;77171;41.408;2.158;2024-03-29T02:30:07;43.30;;;8.88;;
5363;SDS011;77171;41.408;2.158;2024-03-29T02:32:39;45.72;;;8.88;;
5363;SDS011;77171;41.408;2.158;2024-03-29T02:35:08;44.97;;;8.45;;
5363;SDS011;77171;41.408;2.158;2024-03-29T02:37:36;39.80;;;7.25;;
5363;SDS011;77171;41.408;2.158;2024-03-29T02:40:04;44.00;;;8.75;;
5363;SDS011;77171;41.408;2.158;2024-03-29T02:42:36;35.60;;;7.28;;
5363;SDS011;77171;41.408;2.158;2024-03-29T02:45:04;40.35;;;8.27;;
5363;SDS011;77171;41.408;2.158;2024-03-29T02:47:33;33.00;;;7.95;;
5363;SDS011;77171;41.408;2.158;2024-03-29T02:50:01;38.90;;;8.38;;
5363;SDS011;77171;41.408;2.158;2024-03-29T02:52:29;45.45;;;9.23;;
5363;SDS011;77171;41.408;2.158;2024-03-29T02:54:57;50.38;;;9.15;;
5363;SDS011;77171;41.408;2.158;2024-03-29T02:57:24;50.22;;;8.07;;
5363;SDS011;77171;41.408;2.158;2024-03-29T02:59:53;38.50;;;8.85;;
5363;SDS011;77171;41.408;2.158;2024-03-29T03:02:20;37.78;;;8.15;;
5363;SDS011;77171;41.408;2.158;2024-03-29T03:04:48;35.03;;;7.50;;
5363;SDS011;77171;41.408;2.158;2024-03-29T03:07:15;37.97;;;7.80;;
5363;SDS011;77171;41.408;2.158;2024-03-29T03:10:00;41.13;;;8.32;;
5363;SDS011;77171;41.408;2.158;2024-03-29T03:12:45;44.65;;;7.95;;
5363;SDS011;77171;41.408;2.158;2024-03-29T03:15:15;53.13;;;8.13;;
5363;SDS011;77171;41.408;2.158;2024-03-29T03:17:42;49.17;;;8.13;;
5363;SDS011;77171;41.408;2.158;2024-03-29T03:20:10;43.85;;;8.30;;
5363;SDS011;77171;41.408;2.158;2024-03-29T03:22:39;44.20;;;7.88;;
5363;SDS011;77171;41.408;2.158;2024-03-29T03:25:07;41.50;;;7.97;;
5363;SDS011;77171;41.408;2.158;2024-03-29T03:27:34;43.65;;;8.75;;
5363;SDS011;77171;41.408;2.158;2024-03-29T03:30:02;36.97;;;7.38;;
5363;SDS011;77171;41.408;2.158;2024-03-29T03:32:31;38.50;;;7.15;;
5363;SDS011;77171;41.408;2.158;2024-03-29T03:34:59;41.90;;;7.28;;
5363;SDS011;77171;41.408;2.158;2024-03-29T03:37:27;44.60;;;7.78;;
5363;SDS011;77171;41.408;2.158;2024-03-29T03:39:55;37.97;;;7.82;;
5363;SDS011;77171;41.408;2.158;2024-03-29T03:42:22;50.40;;;8.32;;
5363;SDS011;77171;41.408;2.158;2024-03-29T03:44:49;39.22;;;7.68;;
5363;SDS011;77171;41.408;2.158;2024-03-29T03:47:17;46.13;;;7.43;;
5363;SDS011;77171;41.408;2.158;2024-03-29T03:49:46;38.95;;;7.57;;
5363;SDS011;77171;41.408;2.158;2024-03-29T03:52:14;44.08;;;8.30;;
5363;SDS011;77171;41.408;2.158;2024-03-29T03:54:41;39.78;;;7.43;;
5363;SDS011;77171;41.408;2.158;2024-03-29T03:57:08;40.30;;;8.57;;
5363;SDS011;77171;41.408;2.158;2024-03-29T03:59:35;45.95;;;7.65;;
5363;SDS011;77171;41.408;2.158;2024-03-29T04:02:03;45.50;;;8.15;;
5363;SDS011;77171;41.408;2.158;2024-03-29T04:04:30;44.85;;;7.82;;
5363;SDS011;77171;41.408;2.158;2024-03-29T04:07:00;39.22;;;8.00;;
5363;SDS011;77171;41.408;2.158;2024-03-29T04:09:27;39.80;;;9.10;;
5363;SDS011;77171;41.408;2.158;2024-03-29T04:11:55;41.28;;;8.52;;
5363;SDS011;77171;41.408;2.158;2024-03-29T04:14:22;39.85;;;8.60;;
5363;SDS011;77171;41.408;2.158;2024-03-29T04:16:49;36.38;;;7.88;;
5363;SDS011;77171;41.408;2.158;2024-03-29T04:19:17;48.72;;;9.25;;
5363;SDS011;77171;41.408;2.158;2024-03-29T04:21:45;47.25;;;7.70;;
5363;SDS011;77171;41.408;2.158;2024-03-29T04:24:13;44.22;;;7.53;;
5363;SDS011;77171;41.408;2.158;2024-03-29T04:26:41;48.42;;;8.93;;
5363;SDS011;77171;41.408;2.158;2024-03-29T04:29:10;50.03;;;8.68;;
5363;SDS011;77171;41.408;2.158;2024-03-29T04:31:38;44.10;;;7.75;;
5363;SDS011;77171;41.408;2.158;2024-03-29T04:34:05;42.50;;;8.05;;
5363;SDS011;77171;41.408;2.158;2024-03-29T04:36:33;48.03;;;8.60;;
5363;SDS011;77171;41.408;2.158;2024-03-29T04:39:00;50.78;;;9.65;;
5363;SDS011;77171;41.408;2.158;2024-03-29T04:41:29;43.25;;;8.18;;
5363;SDS011;77171;41.408;2.158;2024-03-29T04:44:00;52.72;;;8.63;;
5363;SDS011;77171;41.408;2.158;2024-03-29T04:46:29;39.40;;;8.18;;
5363;SDS011;77171;41.408;2.158;2024-03-29T04:48:57;37.70;;;7.60;;
5363;SDS011;77171;41.408;2.158;2024-03-29T04:51:25;43.78;;;7.93;;
5363;SDS011;77171;41.408;2.158;2024-03-29T04:53:53;36.85;;;8.52;;
5363;SDS011;77171;41.408;2.158;2024-03-29T04:56:21;51.55;;;8.57;;
5363;SDS011;77171;41.408;2.158;2024-03-29T04:58:50;43.72;;;7.95;;
5363;SDS011;77171;41.408;2.158;2024-03-29T05:01:18;47.40;;;7.97;;
5363;SDS011;77171;41.408;2.158;2024-03-29T05:03:46;53.17;;;9.15;;
5363;SDS011;77171;41.408;2.158;2024-03-29T05:06:15;47.63;;;9.68;;
5363;SDS011;77171;41.408;2.158;2024-03-29T05:08:43;45.67;;;8.82;;
5363;SDS011;77171;41.408;2.158;2024-03-29T05:11:10;43.65;;;7.93;;
5363;SDS011;77171;41.408;2.158;2024-03-29T05:13:41;40.83;;;9.10;;
5363;SDS011;77171;41.408;2.158;2024-03-29T05:16:10;47.00;;;8.32;;
5363;SDS011;77171;41.408;2.158;2024-03-29T05:18:38;47.50;;;8.63;;
5363;SDS011;77171;41.408;2.158;2024-03-29T05:21:06;45.30;;;8.68;;
5363;SDS011;77171;41.408;2.158;2024-03-29T05:23:35;53.70;;;8.98;;
5363;SDS011;77171;41.408;2.158;2024-03-29T05:26:03;45.15;;;8.23;;
5363;SDS011;77171;41.408;2.158;2024-03-29T05:28:31;51.20;;;9.07;;
5363;SDS011;77171;41.408;2.158;2024-03-29T05:31:08;41.55;;;8.68;;
5363;SDS011;77171;41.408;2.158;2024-03-29T05:33:40;46.03;;;8.40;;
5363;SDS011;77171;41.408;2.158;2024-03-29T05:36:09;44.50;;;8.20;;
5363;SDS011;77171;41.408;2.158;2024-03-29T05:38:39;45.05;;;8.95;;
5363;SDS011;77171;41.408;2.158;2024-03-29T05:41:07;53.25;;;8.95;;
5363;SDS011;77171;41.408;2.158;2024-03-29T05:43:35;41.97;;;8.50;;
5363;SDS011;77171;41.408;2.158;2024-03-29T05:46:03;50.85;;;8.27;;
5363;SDS011;77171;41.408;2.158;2024-03-29T05:48:33;41.72;;;8.02;;
5363;SDS011;77171;41.408;2.158;2024-03-29T05:51:01;46.85;;;9.73;;
5363;SDS011;77171;41.408;2.158;2024-03-29T05:53:29;49.83;;;9.32;;
5363;SDS011;77171;41.408;2.158;2024-03-29T05:55:57;42.33;;;8.05;;
5363;SDS011;77171;41.408;2.158;2024-03-29T05:58:25;45.85;;;9.02;;
5363;SDS011;77171;41.408;2.158;2024-03-29T06:00:53;45.97;;;9.93;;
5363;SDS011;77171;41.408;2.158;2024-03-29T06:03:21;51.83;;;8.48;;
5363;SDS011;77171;41.408;2.158;2024-03-29T06:05:50;53.38;;;9.68;;
5363;SDS011;77171;41.408;2.158;2024-03-29T06:08:18;56.47;;;9.50;;
5363;SDS011;77171;41.408;2.158;2024-03-29T06:10:49;47.85;;;8.88;;
5363;SDS011;77171;41.408;2.158;2024-03-29T06:13:18;41.97;;;8.35;;
5363;SDS011;77171;41.408;2.158;2024-03-29T06:16:15;44.22;;;8.52;;
5363;SDS011;77171;41.408;2.158;2024-03-29T06:19:00;45.75;;;9.50;;
5363;SDS011;77171;41.408;2.158;2024-03-29T06:21:29;47.80;;;10.32;;
5363;SDS011;77171;41.408;2.158;2024-03-29T06:24:04;49.53;;;9.35;;
5363;SDS011;77171;41.408;2.158;2024-03-29T06:26:33;51.20;;;9.20;;
5363;SDS011;77171;41.408;2.158;2024-03-29T06:29:01;45.42;;;8.52;;
5363;SDS011;77171;41.408;2.158;2024-03-29T06:31:29;48.85;;;9.18;;
5363;SDS011;77171;41.408;2.158;2024-03-29T06:33:57;40.00;;;8.70;;
5363;SDS011;77171;41.408;2.158;2024-03-29T06:36:25;41.55;;;8.77;;
5363;SDS011;77171;41.408;2.158;2024-03-29T06:38:54;44.83;;;8.93;;
5363;SDS011;77171;41.408;2.158;2024-03-29T06:41:22;45.10;;;9.77;;
5363;SDS011;77171;41.408;2.158;2024-03-29T06:43:50;40.33;;;8.52;;
5363;SDS011;77171;41.408;2.158;2024-03-29T06:46:18;51.75;;;10.05;;
5363;SDS011;77171;41.408;2.158;2024-03-29T06:48:46;43.17;;;8.73;;
5363;SDS011;77171;41.408;2.158;2024-03-29T06:51:15;44.28;;;8.73;;
5363;SDS011;77171;41.408;2.158;2024-03-29T06:53:44;39.92;;;7.78;;
5363;SDS011;77171;41.408;2.158;2024-03-29T06:56:13;48.58;;;8.88;;
5363;SDS011;77171;41.408;2.158;2024-03-29T06:58:42;44.72;;;8.25;;
5363;SDS011;77171;41.408;2.158;2024-03-29T07:01:11;50.53;;;8.55;;
5363;SDS011;77171;41.408;2.158;2024-03-29T07:03:39;44.90;;;9.10;;
5363;SDS011;77171;41.408;2.158;2024-03-29T07:06:07;46.28;;;8.82;;
5363;SDS011;77171;41.408;2.158;2024-03-29T07:08:36;42.17;;;8.20;;
5363;SDS011;77171;41.408;2.158;2024-03-29T07:11:04;45.78;;;8.27;;
5363;SDS011;77171;41.408;2.158;2024-03-29T07:13:33;47.15;;;8.55;;
5363;SDS011;77171;41.408;2.158;2024-03-29T07:16:01;47.75;;;9.05;;
5363;SDS011;77171;41.408;2.158;2024-03-29T07:18:30;56.83;;;9.07;;
5363;SDS011;77171;41.408;2.158;2024-03-29T07:20:57;41.15;;;8.23;;
5363;SDS011;77171;41.408;2.158;2024-03-29T07:23:26;42.92;;;8.13;;
5363;SDS011;77171;41.408;2.158;2024-03-29T07:25:57;44.28;;;8.55;;
5363;SDS011;77171;41.408;2.158;2024-03-29T07:28:26;47.45;;;8.75;;
5363;SDS011;77171;41.408;2.158;2024-03-29T07:30:56;51.78;;;8.35;;
5363;SDS011;77171;41.408;2.158;2024-03-29T07:33:24;46.50;;;8.70;;
5363;SDS011;77171;41.408;2.158;2024-03-29T07:35:53;46.78;;;9.30;;
5363;SDS011;77171;41.408;2.158;2024-03-29T07:38:21;42.50;;;8.30;;
5363;SDS011;77171;41.408;2.158;2024-03-29T07:40:50;44.30;;;8.82;;
5363;SDS011;77171;41.408;2.158;2024-03-29T07:43:18;44.10;;;8.35;;
5363;SDS011;77171;41.408;2.158;2024-03-29T07:45:46;41.95;;;9.40;;
5363;SDS011;77171;41.408;2.158;2024-03-29T07:48:16;44.40;;;8.60;;
5363;SDS011;77171;41.408;2.158;2024-03-29T07:50:45;37.85;;;8.23;;
5363;SDS011;77171;41.408;2.158;2024-03-29T07:53:13;42.55;;;8.70;;
5363;SDS011;77171;41.408;2.158;2024-03-29T07:55:41;39.75;;;8.38;;
5363;SDS011;77171;41.408;2.158;2024-03-29T07:58:09;43.75;;;7.97;;
5363;SDS011;77171;41.408;2.158;2024-03-29T08:00:39;38.47;;;7.65;;
5363;SDS011;77171;41.408;2.158;2024-03-29T08:03:08;39.13;;;8.50;;
5363;SDS011;77171;41.408;2.158;2024-03-29T08:05:37;40.55;;;7.88;;
5363;SDS011;77171;41.408;2.158;2024-03-29T08:08:06;37.92;;;8.82;;
5363;SDS011;77171;41.408;2.158;2024-03-29T08:10:34;39.78;;;8.02;;
5363;SDS011;77171;41.408;2.158;2024-03-29T08:13:02;42.47;;;8.35;;
5363;SDS011;77171;41.408;2.158;2024-03-29T08:15:31;39.08;;;8.57;;
5363;SDS011;77171;41.408;2.158;2024-03-29T08:17:59;36.90;;;7.97;;
5363;SDS011;77171;41.408;2.158;2024-03-29T08:20:27;37.88;;;7.45;;
5363;SDS011;77171;41.408;2.158;2024-03-29T08:22:59;39.75;;;9.30;;
5363;SDS011;77171;41.408;2.158;2024-03-29T08:25:27;38.88;;;8.75;;
5363;SDS011;77171;41.408;2.158;2024-03-29T08:27:55;34.38;;;7.53;;
5363;SDS011;77171;41.408;2.158;2024-03-29T08:30:25;45.22;;;13.38;;
5363;SDS011;77171;41.408;2.158;2024-03-29T08:32:58;41.45;;;8.40;;
5363;SDS011;77171;41.408;2.158;2024-03-29T08:35:28;33.10;;;7.97;;
5363;SDS011;77171;41.408;2.158;2024-03-29T08:37:56;35.70;;;7.45;;
5363;SDS011;77171;41.408;2.158;2024-03-29T08:40:27;36.63;;;7.68;;
5363;SDS011;77171;41.408;2.158;2024-03-29T08:42:58;37.15;;;8.07;;
5363;SDS011;77171;41.408;2.158;2024-03-29T08:45:26;36.17;;;7.35;;
5363;SDS011;77171;41.408;2.158;2024-03-29T08:47:53;35.28;;;7.30;;
5363;SDS011;77171;41.408;2.158;2024-03-29T08:50:21;31.15;;;7.43;;
5363;SDS011;77171;41.408;2.158;2024-03-29T08:52:50;32.13;;;7.18;;
5363;SDS011;77171;41.408;2.158;2024-03-29T08:55:18;31.67;;;7.80;;
5363;SDS011;77171;41.408;2.158;2024-03-29T08:57:48;33.92;;;7.15;;
5363;SDS011;77171;41.408;2.158;2024-03-29T09:00:16;33.70;;;7.22;;
5363;SDS011;77171;41.408;2.158;2024-03-29T09:02:45;31.80;;;7.47;;
5363;SDS011;77171;41.408;2.158;2024-03-29T09:05:13;34.97;;;6.70;;
5363;SDS011;77171;41.408;2.158;2024-03-29T09:07:41;31.25;;;7.15;;
5363;SDS011;77171;41.408;2.158;2024-03-29T09:10:09;30.15;;;7.15;;
5363;SDS011;77171;41.408;2.158;2024-03-29T09:12:38;31.50;;;6.72;;
5363;SDS011;77171;41.408;2.158;2024-03-29T09:15:07;36.00;;;7.95;;
5363;SDS011;77171;41.408;2.158;2024-03-29T09:17:39;34.20;;;8.10;;
5363;SDS011;77171;41.408;2.158;2024-03-29T09:20:07;34.83;;;7.75;;
5363;SDS011;77171;41.408;2.158;2024-03-29T09:22:36;32.97;;;8.65;;
5363;SDS011;77171;41.408;2.158;2024-03-29T09:25:05;44.90;;;8.57;;
5363;SDS011;77171;41.408;2.158;2024-03-29T09:27:35;32.03;;;7.28;;
5363;SDS011;77171;41.408;2.158;2024-03-29T09:30:08;48.28;;;16.27;;
5363;SDS011;77171;41.408;2.158;2024-03-29T09:32:38;38.17;;;7.78;;
5363;SDS011;77171;41.408;2.158;2024-03-29T09:35:06;41.47;;;9.20;;
5363;SDS011;77171;41.408;2.158;2024-03-29T09:37:34;33.30;;;7.28;;
5363;SDS011;77171;41.408;2.158;2024-03-29T09:40:04;42.28;;;8.57;;
5363;SDS011;77171;41.408;2.158;2024-03-29T09:42:33;39.10;;;7.97;;
5363;SDS011;77171;41.408;2.158;2024-03-29T09:45:02;43.00;;;9.13;;
5363;SDS011;77171;41.408;2.158;2024-03-29T09:47:33;34.60;;;8.00;;
5363;SDS011;77171;41.408;2.158;2024-03-29T09:50:03;37.10;;;8.68;;
5363;SDS011;77171;41.408;2.158;2024-03-29T09:52:31;43.30;;;9.05;;
5363;SDS011;77171;41.408;2.158;2024-03-29T09:55:00;36.40;;;7.72;;
5363;SDS011;77171;41.408;2.158;2024-03-29T09:57:30;36.75;;;7.50;;
5363;SDS011;77171;41.408;2.158;2024-03-29T09:59:58;32.38;;;7.45;;
5363;SDS011;77171;41.408;2.158;2024-03-29T10:02:27;34.67;;;7.30;;
5363;SDS011;77171;41.408;2.158;2024-03-29T10:04:59;32.63;;;7.22;;
5363;SDS011;77171;41.408;2.158;2024-03-29T10:07:32;32.88;;;8.20;;
5363;SDS011;77171;41.408;2.158;2024-03-29T10:10:02;30.02;;;7.32;;
5363;SDS011;77171;41.408;2.158;2024-03-29T10:12:30;36.10;;;8.57;;
5363;SDS011;77171;41.408;2.158;2024-03-29T10:14:58;37.47;;;8.63;;
5363;SDS011;77171;41.408;2.158;2024-03-29T10:17:31;32.13;;;7.43;;
5363;SDS011;77171;41.408;2.158;2024-03-29T10:20:01;26.55;;;6.80;;
5363;SDS011;77171;41.408;2.158;2024-03-29T10:22:30;34.90;;;7.88;;
5363;SDS011;77171;41.408;2.158;2024-03-29T10:25:03;30.55;;;7.53;;
5363;SDS011;77171;41.408;2.158;2024-03-29T10:27:31;33.97;;;7.65;;
5363;SDS011;77171;41.408;2.158;2024-03-29T10:30:00;35.58;;;8.00;;
5363;SDS011;77171;41.408;2.158;2024-03-29T10:32:28;40.03;;;8.02;;
5363;SDS011;77171;41.408;2.158;2024-03-29T10:34:56;31.13;;;7.55;;
5363;SDS011;77171;41.408;2.158;2024-03-29T10:37:30;37.05;;;8.18;;
5363;SDS011;77171;41.408;2.158;2024-03-29T10:40:05;33.95;;;7.20;;
5363;SDS011;77171;41.408;2.158;2024-03-29T10:42:36;37.00;;;7.70;;
5363;SDS011;77171;41.408;2.158;2024-03-29T10:45:05;35.45;;;7.68;;
5363;SDS011;77171;41.408;2.158;2024-03-29T10:47:34;39.20;;;8.05;;
5363;SDS011;77171;41.408;2.158;2024-03-29T10:50:02;38.95;;;8.93;;
5363;SDS011;77171;41.408;2.158;2024-03-29T10:52:33;28.60;;;6.95;;
5363;SDS011;77171;41.408;2.158;2024-03-29T10:55:02;35.90;;;8.07;;
5363;SDS011;77171;41.408;2.158;2024-03-29T10:57:30;38.88;;;7.82;;
5363;SDS011;77171;41.408;2.158;2024-03-29T11:00:03;35.65;;;7.57;;
5363;SDS011;77171;41.408;2.158;2024-03-29T11:02:39;39.55;;;7.78;;
5363;SDS011;77171;41.408;2.158;2024-03-29T11:05:15;40.42;;;8.60;;
5363;SDS011;77171;41.408;2.158;2024-03-29T11:07:46;30.85;;;7.22;;
5363;SDS011;77171;41.408;2.158;2024-03-29T11:10:15;32.17;;;6.95;;
5363;SDS011;77171;41.408;2.158;2024-03-29T11:12:50;39.63;;;7.63;;
5363;SDS011;77171;41.408;2.158;2024-03-29T11:15:28;33.85;;;7.20;;
5363;SDS011;77171;41.408;2.158;2024-03-29T11:17:58;31.00;;;6.80;;
5363;SDS011;77171;41.408;2.158;2024-03-29T11:20:27;39.35;;;8.02;;
5363;SDS011;77171;41.408;2.158;2024-03-29T11:23:09;39.83;;;7.25;;
5363;SDS011;77171;41.408;2.158;2024-03-29T11:25:40;36.33;;;7.35;;
5363;SDS011;77171;41.408;2.158;2024-03-29T11:28:10;34.28;;;7.63;;
5363;SDS011;77171;41.408;2.158;2024-03-29T11:30:41;41.97;;;13.10;;
5363;SDS011;77171;41.408;2.158;2024-03-29T11:33:27;34.95;;;8.45;;
5363;SDS011;77171;41.408;2.158;2024-03-29T11:35:56;36.25;;;7.55;;
5363;SDS011;77171;41.408;2.158;2024-03-29T11:38:33;39.13;;;8.00;;
5363;SDS011;77171;41.408;2.158;2024-03-29T11:41:05;38.67;;;8.20;;
5363;SDS011;77171;41.408;2.158;2024-03-29T11:43:34;43.28;;;8.65;;
5363;SDS011;77171;41.408;2.158;2024-03-29T11:46:04;36.03;;;7.82;;
5363;SDS011;77171;41.408;2.158;2024-03-29T11:48:33;31.02;;;7.20;;
5363;SDS011;77171;41.408;2.158;2024-03-29T11:51:02;31.45;;;7.47;;
5363;SDS011;77171;41.408;2.158;2024-03-29T11:53:32;35.70;;;7.03;;
5363;SDS011;77171;41.408;2.158;2024-03-29T11:56:01;34.38;;;8.07;;
5363;SDS011;77171;41.408;2.158;2024-03-29T11:58:30;31.67;;;7.35;;
5363;SDS011;77171;41.408;2.158;2024-03-29T12:01:00;27.55;;;6.55;;
5363;SDS011;77171;41.408;2.158;2024-03-29T12:03:54;33.38;;;6.80;;
5363;SDS011;77171;41.408;2.158;2024-03-29T12:06:23;33.33;;;7.35;;
5363;SDS011;77171;41.408;2.158;2024-03-29T12:08:52;33.25;;;7.25;;
5363;SDS011;77171;41.408;2.158;2024-03-29T12:11:21;32.08;;;7.03;;
5363;SDS011;77171;41.408;2.158;2024-03-29T12:13:50;27.50;;;6.75;;
5363;SDS011;77171;41.408;2.158;2024-03-29T12:16:18;26.73;;;6.47;;
5363;SDS011;77171;41.408;2.158;2024-03-29T12:18:46;26.42;;;6.07;;
5363;SDS011;77171;41.408;2.158;2024-03-29T12:21:15;24.42;;;5.90;;
5363;SDS011;77171;41.408;2.158;2024-03-29T12:23:46;26.98;;;6.15;;
5363;SDS011;77171;41.408;2.158;2024-03-29T12:26:17;22.52;;;6.35;;
5363;SDS011;77171;41.408;2.158;2024-03-29T12:28:48;30.35;;;7.22;;
5363;SDS011;77171;41.408;2.158;2024-03-29T12:31:17;27.48;;;6.30;;
5363;SDS011;77171;41.408;2.158;2024-03-29T12:33:51;24.67;;;6.07;;
5363;SDS011;77171;41.408;2.158;2024-03-29T12:36:22;28.30;;;6.82;;
5363;SDS011;77171;41.408;2.158;2024-03-29T12:38:54;25.75;;;6.00;;
5363;SDS011;77171;41.408;2.158;2024-03-29T12:41:25;23.95;;;6.15;;
5363;SDS011;77171;41.408;2.158;2024-03-29T12:43:54;23.10;;;5.47;;
5363;SDS011;77171;41.408;2.158;2024-03-29T12:46:22;19.88;;;4.63;;
5363;SDS011;77171;41.408;2.158;2024-03-29T12:48:56;22.85;;;5.82;;
5363;SDS011;77171;41.408;2.158;2024-03-29T12:51:26;23.05;;;5.82;;
5363;SDS011;77171;41.408;2.158;2024-03-29T12:53:55;15.98;;;5.18;;
5363;SDS011;77171;41.408;2.158;2024-03-29T12:56:30;24.45;;;6.68;;
5363;SDS011;77171;41.408;2.158;2024-03-29T12:58:58;21.05;;;4.95;;
5363;SDS011;77171;41.408;2.158;2024-03-29T13:01:26;22.90;;;5.57;;
5363;SDS011;77171;41.408;2.158;2024-03-29T13:03:54;25.13;;;5.75;;
5363;SDS011;77171;41.408;2.158;2024-03-29T13:06:22;25.60;;;5.57;;
5363;SDS011;77171;41.408;2.158;2024-03-29T13:08:50;21.55;;;5.05;;
5363;SDS011;77171;41.408;2.158;2024-03-29T13:11:19;25.15;;;5.13;;
5363;SDS011;77171;41.408;2.158;2024-03-29T13:13:49;21.08;;;4.80;;
5363;SDS011;77171;41.408;2.158;2024-03-29T13:16:17;21.00;;;5.50;;
5363;SDS011;77171;41.408;2.158;2024-03-29T13:18:45;19.73;;;5.20;;
5363;SDS011;77171;41.408;2.158;2024-03-29T13:21:13;21.13;;;5.50;;
5363;SDS011;77171;41.408;2.158;2024-03-29T13:23:41;25.08;;;7.18;;
5363;SDS011;77171;41.408;2.158;2024-03-29T13:26:09;21.02;;;5.80;;
5363;SDS011;77171;41.408;2.158;2024-03-29T13:28:38;18.02;;;4.88;;
5363;SDS011;77171;41.408;2.158;2024-03-29T13:31:07;22.13;;;5.70;;
5363;SDS011;77171;41.408;2.158;2024-03-29T13:33:35;23.27;;;6.18;;
5363;SDS011;77171;41.408;2.158;2024-03-29T13:36:04;21.33;;;5.60;;
5363;SDS011;77171;41.408;2.158;2024-03-29T13:38:33;22.98;;;5.88;;
5363;SDS011;77171;41.408;2.158;2024-03-29T13:41:01;19.00;;;5.32;;
5363;SDS011;77171;41.408;2.158;2024-03-29T13:43:29;25.85;;;5.00;;
5363;SDS011;77171;41.408;2.158;2024-03-29T13:45:58;23.10;;;6.40;;
5363;SDS011;77171;41.408;2.158;2024-03-29T13:48:28;16.45;;;4.63;;
5363;SDS011;77171;41.408;2.158;2024-03-29T13:50:55;21.23;;;5.10;;
5363;SDS011;77171;41.408;2.158;2024-03-29T13:53:25;27.27;;;6.20;;
5363;SDS011;77171;41.408;2.158;2024-03-29T13:55:53;23.17;;;5.40;;
5363;SDS011;77171;41.408;2.158;2024-03-29T13:58:21;17.98;;;5.63;;
5363;SDS011;77171;41.408;2.158;2024-03-29T14:00:49;23.60;;;6.93;;
5363;SDS011;77171;41.408;2.158;2024-03-29T14:03:20;21.63;;;5.80;;
5363;SDS011;77171;41.408;2.158;2024-03-29T14:05:49;19.30;;;5.93;;
5363;SDS011;77171;41.408;2.158;2024-03-29T14:08:17;19.60;;;5.70;;
5363;SDS011;77171;41.408;2.158;2024-03-29T14:10:45;21.65;;;5.30;;
5363;SDS011;77171;41.408;2.158;2024-03-29T14:13:14;21.08;;;6.60;;
5363;SDS011;77171;41.408;2.158;2024-03-29T14:15:42;19.40;;;6.63;;
5363;SDS011;77171;41.408;2.158;2024-03-29T14:18:10;17.30;;;5.35;;
5363;SDS011;77171;41.408;2.158;2024-03-29T14:20:39;20.65;;;4.85;;
5363;SDS011;77171;41.408;2.158;2024-03-29T14:23:09;17.60;;;4.43;;
5363;SDS011;77171;41.408;2.158;2024-03-29T14:25:41;21.95;;;4.90;;
5363;SDS011;77171;41.408;2.158;2024-03-29T14:28:09;19.13;;;4.18;;
5363;SDS011;77171;41.408;2.158;2024-03-29T14:30:37;24.40;;;4.85;;
5363;SDS011;77171;41.408;2.158;2024-03-29T14:33:05;17.67;;;5.45;;
5363;SDS011;77171;41.408;2.158;2024-03-29T14:35:34;15.98;;;5.80;;
5363;SDS011;77171;41.408;2.158;2024-03-29T14:38:02;14.27;;;4.15;;
5363;SDS011;77171;41.408;2.158;2024-03-29T14:40:31;14.32;;;3.65;;
5363;SDS011;77171;41.408;2.158;2024-03-29T14:43:00;18.40;;;4.93;;
5363;SDS011;77171;41.408;2.158;2024-03-29T14:45:28;21.42;;;4.68;;
5363;SDS011;77171;41.408;2.158;2024-03-29T14:47:56;16.00;;;4.60;;
5363;SDS011;77171;41.408;2.158;2024-03-29T14:50:24;16.35;;;4.35;;
5363;SDS011;77171;41.408;2.158;2024-03-29T14:52:52;14.82;;;3.60;;
5363;SDS011;77171;41.408;2.158;2024-03-29T14:55:20;13.55;;;3.63;;
5363;SDS011;77171;41.408;2.158;2024-03-29T14:57:49;17.15;;;4.55;;